Live + infos Monde Duathlon CD RIMINI

Annonces, infos, résultats et lives sur toutes les courses! Vos comptes rendus de courses sont aussi les bienvenus!
TETART VIVIEN
Messages : 864
Inscription : 03 oct. 2006 21:52
Localisation : saint omer

Live + infos Monde Duathlon CD RIMINI

Message non lu par TETART VIVIEN »

Bonjour,

Je cherche des infos pour suivre les Monde de duathlon de RIMINI ce jour. Départ des Elites + U23 masculin à 13h15... des infos sur ce site mais rien sur le direct.

http://www.duathlon.it/" onclick="window.open(this.href);return false;

Merci
TETART VIVIEN
Messages : 864
Inscription : 03 oct. 2006 21:52
Localisation : saint omer

Re: Live + infos Monde Duathlon CD RIMINI

Message non lu par TETART VIVIEN »

Please, départ dans 10 min.... Il y a moyen de voir un live mais je ne trouve pas le lien!! arf
Avatar de l’utilisateur
mamaille
Messages : 1843
Inscription : 15 janv. 2003 16:05
Localisation : Provence
Contact :

Re: Live + infos Monde Duathlon CD RIMINI

Message non lu par mamaille »

idem!
Et les résultats des juniors, tu les aurais?? je trouve pas
lamel78
Messages : 364
Inscription : 28 avr. 2006 07:18
Localisation : le nord

Re: Live + infos Monde Duathlon CD RIMINI

Message non lu par lamel78 »

va sur triathlon .org ,les resultats y sont!
RotorFrance
Messages : 661
Inscription : 09 déc. 2004 14:09
Localisation : France
Contact :

Re: Live + infos Monde Duathlon CD RIMINI

Message non lu par RotorFrance »

news de la course Elite Homme, et U23 Hommes?
http://www.RotorFrance.com" onclick="window.open(this.href);return false;
http://www.ismfrance.fr" onclick="window.open(this.href);return false;
http://www.trainingattitude.com" onclick="window.open(this.href);return false;
TETART VIVIEN
Messages : 864
Inscription : 03 oct. 2006 21:52
Localisation : saint omer

Re: Live + infos Monde Duathlon CD RIMINI

Message non lu par TETART VIVIEN »

Putain non pas d'infos! que les filles pour le moment.... :(

Il a fait quoi notre Juju merde!
RotorFrance
Messages : 661
Inscription : 09 déc. 2004 14:09
Localisation : France
Contact :

Re: Live + infos Monde Duathlon CD RIMINI

Message non lu par RotorFrance »

Position Last Name First Name Country Total Time RUN T1 BIKE T2 RUN2
1 Amey Paul GBR 01:48:00 00:30:07 00:01:08 00:58:36 00:00:56 00:17:10
2 Aernouts Bart BEL 01:48:07 00:30:06 00:01:07 00:58:37 00:01:02 00:17:12
3 Silva Sergio POR 01:48:36 00:29:58 00:01:00 01:01:03 00:00:48 00:15:43
4 Yakovlev Sergey RUS 01:48:52 00:30:03 00:01:08 01:00:48 00:00:50 00:15:59
5 Du Plessis Brand RSA 01:48:56 00:30:05 00:01:10 01:00:48 00:00:58 00:15:51
6 Barruncho Lino POR 01:49:05 00:29:58 00:01:00 01:01:03 00:00:50 00:16:11
7 Jaskolka Marek POL 01:49:09 00:30:05 00:01:06 01:00:50 00:00:51 00:16:14
8 Picco Alessio ITA 01:49:11 00:30:05 00:01:04 01:00:52 00:00:56 00:16:10
9 Vincent Yohann FRA 01:49:18 00:30:05 00:01:07 01:00:50 00:00:57 00:16:15
10 Coddens Kris BEL 01:49:35 00:30:07 00:01:04 01:00:50 00:00:57 00:16:33
11 Hobby Richard GBR 01:49:39 00:30:05 00:01:06 01:00:52 00:00:58 00:16:36
12 Baugh Raphael AUS 01:49:43 00:30:05 00:01:04 01:00:54 00:00:54 00:16:43
13 Wenk Stephan SUI 01:50:05 00:30:07 00:01:10 01:00:45 00:00:58 00:17:02
14 Alessandri Alessandro ITA 01:50:25 00:30:06 00:01:08 01:00:48 00:01:02 00:17:19
15 Capoferri Nicolas FRA 01:50:31 00:30:06 00:01:10 01:00:46 00:01:02 00:17:26
16 Vansteelant Joerie BEL 01:51:32 00:31:04 00:01:10 01:00:35 00:01:07 00:17:33
17 Sutz Andreas SUI 01:52:13 00:31:04 00:01:10 01:00:36 00:01:14 00:18:07
18 Dotti Fausto ITA 01:52:20 00:30:57 00:01:19 01:00:35 00:01:14 00:18:12
19 Galinier Laurent FRA 01:52:47 00:30:29 00:01:04 01:01:17 00:01:06 00:18:49
20 Mori Tadashi JPN 01:53:06 00:30:55 00:01:08 01:03:26 00:00:56 00:16:36
21 Senn David SUI 01:53:32 00:31:22 00:01:12 01:02:10 00:01:07 00:17:38
22 Russell Matt USA 01:53:33 00:31:22 00:01:17 01:02:04 00:01:22 00:17:25
23 Szucs Akos HUN 01:53:37 00:31:04 00:01:12 01:03:13 00:01:00 00:17:05
24 Herrera Ramos MEX 01:54:13 00:30:05 00:01:12 01:04:15 00:01:06 00:17:33
25 Attard James AUS 01:54:18 00:30:55 00:01:06 01:03:27 00:00:56 00:17:51
26 Guerra Silvio ECU 01:54:31 00:30:27 00:01:21 01:04:08 00:01:18 00:17:15
27 Nieuwkerk Wim NED 01:54:50 00:32:06 00:01:09 01:02:51 00:01:00 00:17:42
28 Iihoshi Morimichi JPN 01:55:08 00:30:40 00:01:09 01:03:34 00:01:08 00:18:34
29 Post Jonathan GER 01:55:20 00:32:06 00:01:12 01:03:20 00:01:10 00:17:29
30 Giuliano Ryan USA 01:55:26 00:31:22 00:01:10 01:04:06 00:01:02 00:17:42
31 Treadwell Dereck USA 01:56:38 00:30:07 00:01:19 01:05:15 00:01:39 00:18:15
32 Nakata Takashi JPN 01:56:47 00:30:55 00:01:10 01:03:30 00:01:15 00:19:54
33 Pasquinelli Andrea ITA 01:57:02 00:32:01 00:01:15 01:02:16 00:01:23 00:20:06
34 Fukaura Yuya JPN 01:57:23 00:30:39 00:01:09 01:04:19 00:01:14 00:19:59
35 Hiramatsu Kodo JPN 01:57:49 00:32:15 00:01:07 01:02:45 00:01:07 00:20:32
36 Smith Kevin CAN 01:59:29 00:31:47 00:01:13 01:05:39 00:01:16 00:19:32
37 Merrick Josh USA 02:01:36 00:34:03 00:01:15 01:02:50 00:01:22 00:22:05
DNF Derobert Damien FRA 00:00:00 00:30:05 00:01:04 00:00:00 00:00:00 00:00:00
DNF Valencia Yohann VEN 00:00:00 00:34:13 00:01:17 00:00:00 00:00:00 00:00:00
DNF Roca Dalmau Roger ESP 00:00:00 00:29:59 00:01:06 00:00:00 00:00:00 00:00:00
DNF Meneses Enrique ESP 00:00:00 00:30:55 00:01:09 00:00:00 00:00:00 00:00:00
DNF Harris Michael NZL 00:00:00 00:34:16 00:01:14 00:00:00 00:00:00 00:00:00
DNF Toth Szilard HUN 00:00:00 00:32:19 00:01:19 00:00:00 00:00:00 00:00:00
DNF Mitchinson David GBR 00:00:00 00:30:06 00:01:08 00:00:00 00:00:00 00:00:00
DNF Wylie Philip GBR 00:00:00 00:30:05 00:01:08 00:00:00 00:00:00 00:00:00
DNF Przymusinski Filip POL 00:00:00 00:34:01 00:01:22 00:00:00 00:00:00 00:00:00
DNF Vinhal Thiago BRA 00:00:00 00:34:27 00:01:21 00:00:00 00:00:00 00:00:00
DNF Luciani Stefano ITA 00:00:00 00:31:42 00:01:07 01:01:54 00:01:15 00:00:00
DNS Malyshev Yulian RUS 00:00:00 00:00:00 00:00:00 00:00:00 00:00:00 00:00:00
DQ Woestenborghs Rob BEL 00:00:00 00:30:06 00:01:04 00:58:39 00:00:56 00:16:52
DQ Dereere Jurgen BEL 00:00:00 00:30:05 00:01:06 01:04:18 00:01:00 00:17:32


Derobert crevaison, la poisse ..

U23 :

Position Last Name First Name Country Total Time RUN T1 BIKE T2 RUN2
1 Cebin Bojan SLO 01:49:29 00:30:07 00:01:10 01:00:45 00:00:56 00:16:30
2 Fabian Alessandro ITA 01:49:49 00:30:07 00:01:06 01:00:50 00:00:57 00:16:47
3 Nicholls Ritchie GBR 01:53:17 00:30:07 00:01:13 01:04:35 00:01:09 00:16:11
4 Ivanov Maksim RUS 01:53:39 00:30:06 00:01:18 01:04:05 00:01:06 00:17:00
5 Petkovic Gordan CRO 01:54:02 00:31:23 00:01:09 01:02:57 00:00:58 00:17:31
6 Stefani Lorenzo ITA 01:54:38 00:31:38 00:01:10 01:02:39 00:00:58 00:18:07
7 Sacchetto Adriano BRA 01:55:35 00:32:59 00:01:10 01:01:22 00:01:23 00:18:37
8 Shimazu Takuya JPN 01:55:42 00:32:08 00:01:12 01:02:10 00:01:18 00:18:52
9 Tabakaeu Yaugen BLR 01:55:49 00:32:10 00:01:16 01:03:15 00:01:08 00:17:57
10 Gomar Jesus ESP 01:55:59 00:31:04 00:01:10 01:03:52 00:01:13 00:18:36
11 Frison Gianluca ITA 01:57:25 00:32:50 00:01:17 01:04:32 00:01:10 00:17:34
12 Urbanovsky Martin SVK 01:58:04 00:31:04 00:01:09 01:05:00 00:01:27 00:19:23
13 Brazy Julien FRA 01:58:26 00:32:44 00:01:14 01:04:38 00:01:03 00:18:44
14 Duvivier Antoine BEL 01:58:49 00:30:40 00:01:23 01:05:55 00:01:22 00:19:28
15 McHale Ben NZL 01:59:15 00:32:08 00:01:17 01:05:14 00:01:19 00:19:15
16 OKA KOKI JPN 01:59:22 00:32:14 00:01:09 01:03:16 00:01:30 00:21:10
17 KURIHARA MASAAKI JPN 02:00:24 00:32:08 00:01:16 01:03:16 00:01:33 00:22:08
DNF Burger Berndt RSA 00:00:00 00:32:31 00:01:25 00:00:00 00:00:00 00:00:00
DNF Dmitrijevs Andrejs LAT 00:00:00 00:33:32 00:01:10 00:00:00 00:00:00 00:00:00
DNF Kawamura Kohei JPN 00:00:00 00:31:41 00:01:15 00:00:00 00:00:00 00:00:00
DNF Secchiero Andrea ITA 00:00:00 00:30:55 00:01:14 00:00:00 00:00:00 00:00:00
DNF Silva Tiago POR 00:00:00 00:34:07 00:01:22 00:00:00 00:00:00 00:00:00
DNS Medved Andrej SLO 00:00:00 00:00:00 00:00:00 00:00:00 00:00:00 00:00:00
DNS Paredes Gómez Enrique ESP 00:00:00 00:00:00 00:00:00 00:00:00 00:00:00 00:00:00
DNS Sansone Massimiliano ITA 00:00:00 00:00:00 00:00:00 00:00:00 00:00:00 00:00:00



Elite Femmes :

Position Last Name First Name Country Total Time RUN T1 BIKE T2 RUN2
1 Fernandes Vanessa POR 02:00:51 00:33:13 00:01:21 01:06:56 00:01:09 00:18:08
2 Morrison Catriona GBR 02:02:29 00:34:10 00:01:25 01:07:25 00:01:13 00:18:12
3 Burgos Ana ESP 02:04:27 00:33:57 00:01:18 01:10:12 00:01:09 00:17:50
4 Louison Alexandra FRA 02:04:51 00:33:57 00:01:18 01:10:11 00:01:07 00:18:17
5 Giordano Laura ITA 02:05:09 00:33:57 00:01:23 01:10:06 00:01:09 00:18:32
6 Vodickova Radka CZE 02:05:16 00:34:57 00:01:21 01:09:18 00:01:07 00:18:32
7 Dederko Ewa POL 02:05:35 00:35:05 00:01:16 01:09:15 00:01:08 00:18:48
8 Janssen Eva NED 02:05:42 00:35:39 00:01:15 01:08:42 00:01:09 00:18:55
9 Van der Meijden Ruth NED 02:05:52 00:35:40 00:01:18 01:08:38 00:01:07 00:19:08
10 Jimenez Tome Beatriz ESP 02:05:59 00:35:39 00:01:20 01:08:38 00:01:08 00:19:13
11 Herrero Helena ESP 02:06:07 00:35:39 00:01:17 01:08:40 00:01:09 00:19:19
12 Bouma Stefanie NED 02:06:10 00:35:39 00:01:17 01:08:38 00:01:10 00:19:22
13 Levenez Sandra FRA 02:06:19 00:35:39 00:01:19 01:08:38 00:01:10 00:19:30
14 Beck Victoria NZL 02:12:03 00:36:10 00:01:19 01:13:59 00:01:10 00:19:23
15 Sawada Airi JPN 02:13:03 00:36:08 00:01:18 01:14:01 00:01:13 00:20:21
16 Simpson Bianca USA 02:14:03 00:37:23 00:01:36 01:12:29 00:01:14 00:21:19
17 Preisig Anne USA 02:15:52 00:38:02 00:01:49 01:11:48 00:01:28 00:22:41
18 Lisboa Gisele BRA 02:17:58 00:37:23 00:01:35 01:14:43 00:01:42 00:22:32
19 Keller Becky USA 02:18:53 00:38:34 00:01:35 01:13:28 00:01:46 00:23:27
DNF Kokalj Darja SLO 00:00:00 00:35:45 00:01:25 00:00:00 00:00:00 00:00:00
DNF Yajima Ruriko JPN 00:00:00 00:37:17 00:01:37 00:00:00 00:00:00 00:00:00
DNF INOUE ERIKA JPN 00:00:00 00:38:54 00:01:26 00:00:00 00:00:00 00:00:00
DNF Dimaki Deniz GRE 00:00:00 00:00:10 00:00:00 00:00:00 00:00:00 00:00:00
http://www.RotorFrance.com" onclick="window.open(this.href);return false;
http://www.ismfrance.fr" onclick="window.open(this.href);return false;
http://www.trainingattitude.com" onclick="window.open(this.href);return false;
TETART VIVIEN
Messages : 864
Inscription : 03 oct. 2006 21:52
Localisation : saint omer

Re: Live + infos Monde Duathlon CD RIMINI

Message non lu par TETART VIVIEN »

ouép, dur dur pour Julien semble-t-il en U23... Peut être pas encore bien remis de sa chute... Mais sa reste un championnat du Monde!!!
Avatar de l’utilisateur
Bilbon-sacquet
Messages : 5104
Inscription : 28 janv. 2004 13:31
Localisation : Partout où règnent sports et fiesta !!!
Contact :

Re: Live + infos Monde Duathlon CD RIMINI

Message non lu par Bilbon-sacquet »

Dommage pour Alex, pas loin du podium
"Il est agréable d'être important, mais il est plus important d'être agréable" et pour appliquer cette devise allez sur www.bilbo-wheel.over-blog.com pour me rejoindre!!
Avatar de l’utilisateur
Kenzo
Messages : 15480
Inscription : 07 sept. 2006 14:03
Localisation : ABC NEWS !!!

Re: Live + infos Monde Duathlon CD RIMINI

Message non lu par Kenzo »

Qu'est ce qui s'est passé pour Rob et Jurgeen ? Ils ont été disqualifié :shock: :shock:

"The drama began early in the 40-kilometer bike segment as all six men were in the lead pack. According to Dereere, his Belgian teammate Woestenborghs was cycling dangerously. Eventually Amey, Aernouts and Woestenborghs broke away and went on to post the three fastest bike splits of the day by almost two full minutes. That lead was enough for all three to secure the podium with Woestenborghs crossing the line first, Amey second and Aernouts in third.

However, after the race, Dereere filed a protest with race officials against Woestenborghs for his aggressive riding. Officials said it was a tough call but ultimately disqualified both men for what was deemed "unsportsmanlike and dangerous behaviour on the first lap of the bike segment which risked the safety of the competitors around them". Click here to hear the official announcement of the disqualification

With the disqualification, Amey was crowned world champion for the third time in his career, successfully defending last year's title. But the bitter sweetness of the occasion was not lost on him".
I don't ride a bike to add days to my life. I ride a bike to add life to my days !!!
Greens
Messages : 320
Inscription : 09 mars 2005 19:55
Localisation : Pau

Re: Live + infos Monde Duathlon CD RIMINI

Message non lu par Greens »

Dereere avait des frites plein les poches et ne voulait pas partager alors ils se sont engueulés.
Avatar de l’utilisateur
Kenzo
Messages : 15480
Inscription : 07 sept. 2006 14:03
Localisation : ABC NEWS !!!

Re: Live + infos Monde Duathlon CD RIMINI

Message non lu par Kenzo »

ok merci pour la traduction :sm15:
I don't ride a bike to add days to my life. I ride a bike to add life to my days !!!
timarctri
Messages : 175
Inscription : 24 mars 2008 14:30
Localisation : Salon de Provence et Chaumont

Re: Live + infos Monde Duathlon CD RIMINI

Message non lu par timarctri »

et les groupes d ages???
des news?
Avatar de l’utilisateur
Kenzo
Messages : 15480
Inscription : 07 sept. 2006 14:03
Localisation : ABC NEWS !!!

Re: Live + infos Monde Duathlon CD RIMINI

Message non lu par Kenzo »

En fait ça donne ça :arrow: Paul Amey est devenu pour la 3ème fois champion du monde de duathlon grâce à la disqualification après la course de Rob Woestenborghs …suite à une réclamation de son compatriote Dereere pour conduite dangereuse en vélo ! Belle ambiance dans l’équipe belge !
I don't ride a bike to add days to my life. I ride a bike to add life to my days !!!
timarctri
Messages : 175
Inscription : 24 mars 2008 14:30
Localisation : Salon de Provence et Chaumont

Re: Live + infos Monde Duathlon CD RIMINI

Message non lu par timarctri »

kenzo a écrit :En fait ça donne ça :arrow: Paul Amey est devenu pour la 3ème fois champion du monde de duathlon grâce à la disqualification après la course de Rob Woestenborghs …suite à une réclamation de son compatriote Dereere pour conduite dangereuse en vélo ! Belle ambiance dans l’équipe belge !
t es deja rentre de rimini ou t ecris de la bas??
Répondre